Terminal Aerodrome Forecast
Issued by NWS North Platte, NE

Current Version | Previous Version | Text Only | Print | Product List | Glossary On
Versions: 1 2 3 4 5 6 7 8 9 10 11 12 13 14 15
000
FTUS43 KLBF 270800 AAA
TAFLBF
TAF AMD
KLBF 270800Z 2708/2806 31005KT P6SM SCT026 BKN200
      TEMPO 2708/2710 OVC025
     FM271400 30006KT P6SM SCT250
     FM271800 27008KT P6SM SKC
     FM280000 VRB06KT P6SM SKC=

USA.gov is the U.S. government's official web portal to all federal, state and local government web resources and services.